sensor_id;sensor_type;location;lat;lon;timestamp;temperature;humidity
33903;DHT22;20194;50.950;5.346;2022-08-21T00:00:47;20.00;1.00
33903;DHT22;20194;50.950;5.346;2022-08-21T00:03:14;19.90;1.00
33903;DHT22;20194;50.950;5.346;2022-08-21T00:05:45;19.90;1.00
33903;DHT22;20194;50.950;5.346;2022-08-21T00:08:12;19.90;1.00
33903;DHT22;20194;50.950;5.346;2022-08-21T00:10:40;19.80;1.00
33903;DHT22;20194;50.950;5.346;2022-08-21T00:13:06;19.80;1.00
33903;DHT22;20194;50.950;5.346;2022-08-21T00:15:33;19.80;1.00
33903;DHT22;20194;50.950;5.346;2022-08-21T00:18:00;19.80;1.00
33903;DHT22;20194;50.950;5.346;2022-08-21T00:20:25;19.80;1.00
33903;DHT22;20194;50.950;5.346;2022-08-21T00:22:51;19.60;1.00
33903;DHT22;20194;50.950;5.346;2022-08-21T00:25:18;19.50;1.00
33903;DHT22;20194;50.950;5.346;2022-08-21T00:27:44;19.40;1.00
33903;DHT22;20194;50.950;5.346;2022-08-21T00:30:13;19.40;1.00
33903;DHT22;20194;50.950;5.346;2022-08-21T00:32:39;19.30;1.00
33903;DHT22;20194;50.950;5.346;2022-08-21T00:35:11;19.20;1.00
33903;DHT22;20194;50.950;5.346;2022-08-21T00:37:38;19.30;1.00
33903;DHT22;20194;50.950;5.346;2022-08-21T00:40:05;19.20;1.00
33903;DHT22;20194;50.950;5.346;2022-08-21T00:42:31;19.20;1.00
33903;DHT22;20194;50.950;5.346;2022-08-21T00:44:57;19.30;1.00
33903;DHT22;20194;50.950;5.346;2022-08-21T00:47:23;19.20;1.00
33903;DHT22;20194;50.950;5.346;2022-08-21T00:49:49;19.20;1.00
33903;DHT22;20194;50.950;5.346;2022-08-21T00:52:19;19.20;1.00
33903;DHT22;20194;50.950;5.346;2022-08-21T00:54:47;19.10;1.00
33903;DHT22;20194;50.950;5.346;2022-08-21T00:57:36;19.10;1.00
33903;DHT22;20194;50.950;5.346;2022-08-21T01:00:09;19.10;1.00
33903;DHT22;20194;50.950;5.346;2022-08-21T01:02:36;19.20;1.00
33903;DHT22;20194;50.950;5.346;2022-08-21T01:05:02;19.00;1.00
33903;DHT22;20194;50.950;5.346;2022-08-21T01:07:27;19.00;1.00
33903;DHT22;20194;50.950;5.346;2022-08-21T01:09:53;19.10;1.00
33903;DHT22;20194;50.950;5.346;2022-08-21T01:12:19;19.00;1.00
33903;DHT22;20194;50.950;5.346;2022-08-21T01:14:45;19.00;1.00
33903;DHT22;20194;50.950;5.346;2022-08-21T01:17:13;19.00;1.00
33903;DHT22;20194;50.950;5.346;2022-08-21T01:19:40;19.00;1.00
33903;DHT22;20194;50.950;5.346;2022-08-21T01:22:06;19.00;1.00
33903;DHT22;20194;50.950;5.346;2022-08-21T01:24:32;19.00;1.00
33903;DHT22;20194;50.950;5.346;2022-08-21T01:26:59;18.90;1.00
33903;DHT22;20194;50.950;5.346;2022-08-21T01:29:39;18.90;1.00
33903;DHT22;20194;50.950;5.346;2022-08-21T01:32:11;18.90;1.00
33903;DHT22;20194;50.950;5.346;2022-08-21T01:34:41;18.80;1.00
33903;DHT22;20194;50.950;5.346;2022-08-21T01:37:08;18.80;1.00
33903;DHT22;20194;50.950;5.346;2022-08-21T01:39:35;18.90;1.00
33903;DHT22;20194;50.950;5.346;2022-08-21T01:42:02;18.80;1.00
33903;DHT22;20194;50.950;5.346;2022-08-21T01:44:28;18.80;1.00
33903;DHT22;20194;50.950;5.346;2022-08-21T01:46:55;18.80;1.00
33903;DHT22;20194;50.950;5.346;2022-08-21T01:49:21;18.80;1.00
33903;DHT22;20194;50.950;5.346;2022-08-21T01:51:47;18.80;1.00
33903;DHT22;20194;50.950;5.346;2022-08-21T01:54:12;18.80;1.00
33903;DHT22;20194;50.950;5.346;2022-08-21T01:56:40;18.80;1.00
33903;DHT22;20194;50.950;5.346;2022-08-21T01:59:07;18.80;1.00
33903;DHT22;20194;50.950;5.346;2022-08-21T02:01:33;18.70;1.00
33903;DHT22;20194;50.950;5.346;2022-08-21T02:03:59;18.70;1.00
33903;DHT22;20194;50.950;5.346;2022-08-21T02:06:27;18.70;1.00
33903;DHT22;20194;50.950;5.346;2022-08-21T02:08:53;18.60;1.00
33903;DHT22;20194;50.950;5.346;2022-08-21T02:11:19;18.60;1.00
33903;DHT22;20194;50.950;5.346;2022-08-21T02:13:44;18.60;1.00
33903;DHT22;20194;50.950;5.346;2022-08-21T02:16:11;18.50;1.00
33903;DHT22;20194;50.950;5.346;2022-08-21T02:18:37;18.50;1.00
33903;DHT22;20194;50.950;5.346;2022-08-21T02:21:03;18.50;1.00
33903;DHT22;20194;50.950;5.346;2022-08-21T02:23:30;18.40;1.00
33903;DHT22;20194;50.950;5.346;2022-08-21T02:25:58;18.40;1.00
33903;DHT22;20194;50.950;5.346;2022-08-21T02:28:24;18.40;1.00
33903;DHT22;20194;50.950;5.346;2022-08-21T02:30:50;18.20;1.00
33903;DHT22;20194;50.950;5.346;2022-08-21T02:33:17;18.30;1.00
33903;DHT22;20194;50.950;5.346;2022-08-21T02:35:44;18.20;1.00
33903;DHT22;20194;50.950;5.346;2022-08-21T02:38:13;18.20;1.00
33903;DHT22;20194;50.950;5.346;2022-08-21T02:40:42;18.30;1.00
33903;DHT22;20194;50.950;5.346;2022-08-21T02:43:08;18.30;1.00
33903;DHT22;20194;50.950;5.346;2022-08-21T02:45:36;18.20;1.00
33903;DHT22;20194;50.950;5.346;2022-08-21T02:48:05;18.00;1.00
33903;DHT22;20194;50.950;5.346;2022-08-21T02:50:36;17.80;1.00
33903;DHT22;20194;50.950;5.346;2022-08-21T02:53:03;17.80;1.00
33903;DHT22;20194;50.950;5.346;2022-08-21T02:55:31;17.80;1.00
33903;DHT22;20194;50.950;5.346;2022-08-21T02:57:58;17.50;1.00
33903;DHT22;20194;50.950;5.346;2022-08-21T03:00:26;17.50;1.00
33903;DHT22;20194;50.950;5.346;2022-08-21T03:02:52;17.50;1.00
33903;DHT22;20194;50.950;5.346;2022-08-21T03:05:19;17.60;1.00
33903;DHT22;20194;50.950;5.346;2022-08-21T03:07:46;17.70;1.00
33903;DHT22;20194;50.950;5.346;2022-08-21T03:10:13;17.80;1.00
33903;DHT22;20194;50.950;5.346;2022-08-21T03:12:39;17.90;1.00
33903;DHT22;20194;50.950;5.346;2022-08-21T03:15:11;18.00;1.00
33903;DHT22;20194;50.950;5.346;2022-08-21T03:17:37;17.80;1.00
33903;DHT22;20194;50.950;5.346;2022-08-21T03:20:04;18.00;1.00
33903;DHT22;20194;50.950;5.346;2022-08-21T03:22:31;17.90;1.00
33903;DHT22;20194;50.950;5.346;2022-08-21T03:24:57;17.90;1.00
33903;DHT22;20194;50.950;5.346;2022-08-21T03:27:23;18.00;1.00
33903;DHT22;20194;50.950;5.346;2022-08-21T03:29:50;17.90;1.00
33903;DHT22;20194;50.950;5.346;2022-08-21T03:32:15;17.70;1.00
33903;DHT22;20194;50.950;5.346;2022-08-21T03:34:41;17.70;1.00
33903;DHT22;20194;50.950;5.346;2022-08-21T03:37:07;17.60;1.00
33903;DHT22;20194;50.950;5.346;2022-08-21T03:39:34;17.60;1.00
33903;DHT22;20194;50.950;5.346;2022-08-21T03:42:00;17.50;1.00
33903;DHT22;20194;50.950;5.346;2022-08-21T03:44:26;17.50;1.00
33903;DHT22;20194;50.950;5.346;2022-08-21T03:46:56;17.60;1.00
33903;DHT22;20194;50.950;5.346;2022-08-21T03:49:22;17.70;1.00
33903;DHT22;20194;50.950;5.346;2022-08-21T03:51:48;17.70;1.00
33903;DHT22;20194;50.950;5.346;2022-08-21T03:54:14;17.60;1.00
33903;DHT22;20194;50.950;5.346;2022-08-21T03:56:39;17.60;1.00
33903;DHT22;20194;50.950;5.346;2022-08-21T03:59:05;17.70;1.00
33903;DHT22;20194;50.950;5.346;2022-08-21T04:01:31;17.70;1.00
33903;DHT22;20194;50.950;5.346;2022-08-21T04:03:58;17.60;1.00
33903;DHT22;20194;50.950;5.346;2022-08-21T04:06:24;17.70;1.00
33903;DHT22;20194;50.950;5.346;2022-08-21T04:08:51;17.80;1.00
33903;DHT22;20194;50.950;5.346;2022-08-21T04:11:17;17.80;1.00
33903;DHT22;20194;50.950;5.346;2022-08-21T04:13:42;17.60;1.00
33903;DHT22;20194;50.950;5.346;2022-08-21T04:16:08;17.50;1.00
33903;DHT22;20194;50.950;5.346;2022-08-21T04:18:34;17.40;1.00
33903;DHT22;20194;50.950;5.346;2022-08-21T04:21:00;17.50;1.00
33903;DHT22;20194;50.950;5.346;2022-08-21T04:23:27;17.60;1.00
33903;DHT22;20194;50.950;5.346;2022-08-21T04:25:54;17.70;1.00
33903;DHT22;20194;50.950;5.346;2022-08-21T04:28:22;17.60;1.00
33903;DHT22;20194;50.950;5.346;2022-08-21T04:30:48;17.60;1.00
33903;DHT22;20194;50.950;5.346;2022-08-21T04:33:15;17.40;1.00
33903;DHT22;20194;50.950;5.346;2022-08-21T04:35:41;17.50;1.00
33903;DHT22;20194;50.950;5.346;2022-08-21T04:38:08;17.60;1.00
33903;DHT22;20194;50.950;5.346;2022-08-21T04:40:33;17.60;1.00
33903;DHT22;20194;50.950;5.346;2022-08-21T04:43:05;17.60;1.00
33903;DHT22;20194;50.950;5.346;2022-08-21T04:45:34;17.60;1.00
33903;DHT22;20194;50.950;5.346;2022-08-21T04:48:02;17.60;1.00
33903;DHT22;20194;50.950;5.346;2022-08-21T04:50:37;17.70;1.00
33903;DHT22;20194;50.950;5.346;2022-08-21T04:53:05;17.60;1.00
33903;DHT22;20194;50.950;5.346;2022-08-21T04:55:32;17.70;1.00
33903;DHT22;20194;50.950;5.346;2022-08-21T04:57:59;17.70;1.00
33903;DHT22;20194;50.950;5.346;2022-08-21T05:00:25;17.50;1.00
33903;DHT22;20194;50.950;5.346;2022-08-21T05:02:53;17.50;1.00
33903;DHT22;20194;50.950;5.346;2022-08-21T05:05:22;17.40;1.00
33903;DHT22;20194;50.950;5.346;2022-08-21T05:07:48;17.40;1.00
33903;DHT22;20194;50.950;5.346;2022-08-21T05:10:14;17.00;1.00
33903;DHT22;20194;50.950;5.346;2022-08-21T05:12:41;16.80;1.00
33903;DHT22;20194;50.950;5.346;2022-08-21T05:15:09;16.80;1.00
33903;DHT22;20194;50.950;5.346;2022-08-21T05:17:35;17.00;1.00
33903;DHT22;20194;50.950;5.346;2022-08-21T05:20:01;16.90;1.00
33903;DHT22;20194;50.950;5.346;2022-08-21T05:22:27;16.90;1.00
33903;DHT22;20194;50.950;5.346;2022-08-21T05:24:53;17.00;1.00
33903;DHT22;20194;50.950;5.346;2022-08-21T05:27:19;17.00;1.00
33903;DHT22;20194;50.950;5.346;2022-08-21T05:29:44;17.00;1.00
33903;DHT22;20194;50.950;5.346;2022-08-21T05:32:11;17.10;1.00
33903;DHT22;20194;50.950;5.346;2022-08-21T05:34:37;17.20;1.00
33903;DHT22;20194;50.950;5.346;2022-08-21T05:37:03;17.20;1.00
33903;DHT22;20194;50.950;5.346;2022-08-21T05:39:29;17.40;1.00
33903;DHT22;20194;50.950;5.346;2022-08-21T05:41:55;17.40;1.00
33903;DHT22;20194;50.950;5.346;2022-08-21T05:44:21;17.10;1.00
33903;DHT22;20194;50.950;5.346;2022-08-21T05:46:46;17.10;1.00
33903;DHT22;20194;50.950;5.346;2022-08-21T05:49:12;16.90;1.00
33903;DHT22;20194;50.950;5.346;2022-08-21T05:51:40;16.70;1.00
33903;DHT22;20194;50.950;5.346;2022-08-21T05:54:06;16.70;1.00
33903;DHT22;20194;50.950;5.346;2022-08-21T05:56:32;16.60;1.00
33903;DHT22;20194;50.950;5.346;2022-08-21T05:58:58;16.50;1.00
33903;DHT22;20194;50.950;5.346;2022-08-21T06:01:24;16.40;1.00
33903;DHT22;20194;50.950;5.346;2022-08-21T06:03:50;16.40;1.00
33903;DHT22;20194;50.950;5.346;2022-08-21T06:06:16;16.30;1.00
33903;DHT22;20194;50.950;5.346;2022-08-21T06:08:41;16.40;1.00
33903;DHT22;20194;50.950;5.346;2022-08-21T06:11:07;16.50;1.00
33903;DHT22;20194;50.950;5.346;2022-08-21T06:13:34;16.60;1.00
33903;DHT22;20194;50.950;5.346;2022-08-21T06:16:12;16.80;1.00
33903;DHT22;20194;50.950;5.346;2022-08-21T06:18:39;16.90;1.00
33903;DHT22;20194;50.950;5.346;2022-08-21T06:21:05;16.80;1.00
33903;DHT22;20194;50.950;5.346;2022-08-21T06:23:31;16.80;1.00
33903;DHT22;20194;50.950;5.346;2022-08-21T06:25:57;16.90;1.00
33903;DHT22;20194;50.950;5.346;2022-08-21T06:28:23;16.90;1.00
33903;DHT22;20194;50.950;5.346;2022-08-21T06:30:49;16.90;1.00
33903;DHT22;20194;50.950;5.346;2022-08-21T06:33:14;16.90;1.00
33903;DHT22;20194;50.950;5.346;2022-08-21T06:35:40;17.00;1.00
33903;DHT22;20194;50.950;5.346;2022-08-21T06:38:06;17.20;1.00
33903;DHT22;20194;50.950;5.346;2022-08-21T06:40:32;17.60;1.00
33903;DHT22;20194;50.950;5.346;2022-08-21T06:43:06;17.70;1.00
33903;DHT22;20194;50.950;5.346;2022-08-21T06:45:32;17.80;1.00
33903;DHT22;20194;50.950;5.346;2022-08-21T06:47:58;17.80;1.00
33903;DHT22;20194;50.950;5.346;2022-08-21T06:50:23;17.80;1.00
33903;DHT22;20194;50.950;5.346;2022-08-21T06:52:49;17.90;1.00
33903;DHT22;20194;50.950;5.346;2022-08-21T06:55:15;18.30;1.00
33903;DHT22;20194;50.950;5.346;2022-08-21T06:57:40;18.60;1.00
33903;DHT22;20194;50.950;5.346;2022-08-21T07:00:07;18.60;1.00
33903;DHT22;20194;50.950;5.346;2022-08-21T07:02:34;18.80;1.00
33903;DHT22;20194;50.950;5.346;2022-08-21T07:05:00;18.80;1.00
33903;DHT22;20194;50.950;5.346;2022-08-21T07:07:25;19.10;1.00
33903;DHT22;20194;50.950;5.346;2022-08-21T07:09:51;19.00;1.00
33903;DHT22;20194;50.950;5.346;2022-08-21T07:12:17;19.20;1.00
33903;DHT22;20194;50.950;5.346;2022-08-21T07:14:42;19.40;1.00
33903;DHT22;20194;50.950;5.346;2022-08-21T07:17:08;19.60;1.00
33903;DHT22;20194;50.950;5.346;2022-08-21T07:19:33;20.00;1.00
33903;DHT22;20194;50.950;5.346;2022-08-21T07:22:01;20.10;1.00
33903;DHT22;20194;50.950;5.346;2022-08-21T07:24:27;20.30;1.00
33903;DHT22;20194;50.950;5.346;2022-08-21T07:26:53;20.30;1.00
33903;DHT22;20194;50.950;5.346;2022-08-21T07:29:19;20.20;1.00
33903;DHT22;20194;50.950;5.346;2022-08-21T07:31:45;20.40;1.00
33903;DHT22;20194;50.950;5.346;2022-08-21T07:34:10;20.50;1.00
33903;DHT22;20194;50.950;5.346;2022-08-21T07:36:36;20.50;1.00
33903;DHT22;20194;50.950;5.346;2022-08-21T07:39:02;20.60;1.00
33903;DHT22;20194;50.950;5.346;2022-08-21T07:41:29;20.80;1.00
33903;DHT22;20194;50.950;5.346;2022-08-21T07:43:58;21.10;1.00
33903;DHT22;20194;50.950;5.346;2022-08-21T07:46:25;21.20;1.00
33903;DHT22;20194;50.950;5.346;2022-08-21T07:48:51;21.20;1.00
33903;DHT22;20194;50.950;5.346;2022-08-21T07:51:18;20.90;1.00
33903;DHT22;20194;50.950;5.346;2022-08-21T07:53:51;20.50;1.00
33903;DHT22;20194;50.950;5.346;2022-08-21T07:56:17;20.60;1.00
33903;DHT22;20194;50.950;5.346;2022-08-21T07:58:43;20.90;1.00
33903;DHT22;20194;50.950;5.346;2022-08-21T08:01:09;21.00;1.00
33903;DHT22;20194;50.950;5.346;2022-08-21T08:03:35;21.20;1.00
33903;DHT22;20194;50.950;5.346;2022-08-21T08:06:02;21.60;1.00
33903;DHT22;20194;50.950;5.346;2022-08-21T08:08:30;21.80;1.00
33903;DHT22;20194;50.950;5.346;2022-08-21T08:10:57;21.70;1.00
33903;DHT22;20194;50.950;5.346;2022-08-21T08:13:23;21.60;1.00
33903;DHT22;20194;50.950;5.346;2022-08-21T08:15:49;21.70;1.00
33903;DHT22;20194;50.950;5.346;2022-08-21T08:18:15;22.00;1.00
33903;DHT22;20194;50.950;5.346;2022-08-21T08:20:41;22.20;1.00
33903;DHT22;20194;50.950;5.346;2022-08-21T08:23:09;22.10;1.00
33903;DHT22;20194;50.950;5.346;2022-08-21T08:25:35;22.30;1.00
33903;DHT22;20194;50.950;5.346;2022-08-21T08:28:01;22.40;1.00
33903;DHT22;20194;50.950;5.346;2022-08-21T08:30:26;22.10;1.00
33903;DHT22;20194;50.950;5.346;2022-08-21T08:32:52;22.10;1.00
33903;DHT22;20194;50.950;5.346;2022-08-21T08:35:18;22.00;1.00
33903;DHT22;20194;50.950;5.346;2022-08-21T08:37:44;21.70;1.00
33903;DHT22;20194;50.950;5.346;2022-08-21T08:40:20;22.00;1.00
33903;DHT22;20194;50.950;5.346;2022-08-21T08:42:49;22.30;1.00
33903;DHT22;20194;50.950;5.346;2022-08-21T08:45:19;22.50;99.90
33903;DHT22;20194;50.950;5.346;2022-08-21T08:47:51;22.80;99.90
33903;DHT22;20194;50.950;5.346;2022-08-21T08:53:05;23.60;99.90
33903;DHT22;20194;50.950;5.346;2022-08-21T08:55:35;23.70;99.90
33903;DHT22;20194;50.950;5.346;2022-08-21T08:58:02;23.90;99.90
33903;DHT22;20194;50.950;5.346;2022-08-21T09:00:30;24.20;93.90
33903;DHT22;20194;50.950;5.346;2022-08-21T09:02:58;24.00;1.00
33903;DHT22;20194;50.950;5.346;2022-08-21T09:05:33;24.00;7.40
33903;DHT22;20194;50.950;5.346;2022-08-21T09:16:59;23.50;99.90
33903;DHT22;20194;50.950;5.346;2022-08-21T09:19:45;23.70;29.10
33903;DHT22;20194;50.950;5.346;2022-08-21T09:27:43;24.50;1.00
33903;DHT22;20194;50.950;5.346;2022-08-21T09:30:10;24.40;1.00
33903;DHT22;20194;50.950;5.346;2022-08-21T09:32:37;24.00;1.00
33903;DHT22;20194;50.950;5.346;2022-08-21T09:40:41;24.20;1.00
33903;DHT22;20194;50.950;5.346;2022-08-21T09:45:41;24.80;1.00
33903;DHT22;20194;50.950;5.346;2022-08-21T09:48:22;24.60;1.00
33903;DHT22;20194;50.950;5.346;2022-08-21T09:50:49;24.40;1.00
33903;DHT22;20194;50.950;5.346;2022-08-21T09:53:22;24.10;1.00
33903;DHT22;20194;50.950;5.346;2022-08-21T09:55:51;24.20;1.00
33903;DHT22;20194;50.950;5.346;2022-08-21T09:58:37;24.10;1.00
33903;DHT22;20194;50.950;5.346;2022-08-21T10:01:05;24.30;1.00
33903;DHT22;20194;50.950;5.346;2022-08-21T10:03:32;24.70;1.00
33903;DHT22;20194;50.950;5.346;2022-08-21T10:06:00;24.80;1.00
33903;DHT22;20194;50.950;5.346;2022-08-21T10:08:31;24.90;1.00
33903;DHT22;20194;50.950;5.346;2022-08-21T10:11:04;25.10;10.70
33903;DHT22;20194;50.950;5.346;2022-08-21T10:16:32;25.00;1.00
33903;DHT22;20194;50.950;5.346;2022-08-21T10:27:26;25.60;95.50
33903;DHT22;20194;50.950;5.346;2022-08-21T10:30:17;25.40;24.10
33903;DHT22;20194;50.950;5.346;2022-08-21T10:35:32;25.10;1.00
33903;DHT22;20194;50.950;5.346;2022-08-21T10:54:36;25.20;96.10
33903;DHT22;20194;50.950;5.346;2022-08-21T10:57:11;25.40;99.90
33903;DHT22;20194;50.950;5.346;2022-08-21T10:59:47;25.10;46.40
33903;DHT22;20194;50.950;5.346;2022-08-21T11:02:21;24.80;1.00
33903;DHT22;20194;50.950;5.346;2022-08-21T11:04:56;25.10;5.60
33903;DHT22;20194;50.950;5.346;2022-08-21T11:07:28;25.00;47.70
33903;DHT22;20194;50.950;5.346;2022-08-21T11:09:58;25.00;42.70
33903;DHT22;20194;50.950;5.346;2022-08-21T11:12:43;25.10;38.90
33903;DHT22;20194;50.950;5.346;2022-08-21T11:18:19;25.40;1.00
33903;DHT22;20194;50.950;5.346;2022-08-21T11:21:01;25.50;1.00
33903;DHT22;20194;50.950;5.346;2022-08-21T11:23:45;25.30;1.00
33903;DHT22;20194;50.950;5.346;2022-08-21T11:26:24;25.60;1.00
33903;DHT22;20194;50.950;5.346;2022-08-21T11:29:04;25.90;1.00
33903;DHT22;20194;50.950;5.346;2022-08-21T11:31:44;26.00;66.10
33903;DHT22;20194;50.950;5.346;2022-08-21T11:40:06;25.90;1.00
33903;DHT22;20194;50.950;5.346;2022-08-21T11:50:30;26.20;1.00
33903;DHT22;20194;50.950;5.346;2022-08-21T11:53:01;26.30;1.00
33903;DHT22;20194;50.950;5.346;2022-08-21T12:00:36;26.60;1.00
33903;DHT22;20194;50.950;5.346;2022-08-21T12:03:13;26.00;1.00
33903;DHT22;20194;50.950;5.346;2022-08-21T12:05:53;25.70;1.00
33903;DHT22;20194;50.950;5.346;2022-08-21T12:08:31;25.60;23.80
33903;DHT22;20194;50.950;5.346;2022-08-21T12:11:24;25.50;18.30
33903;DHT22;20194;50.950;5.346;2022-08-21T12:14:00;25.70;63.10
33903;DHT22;20194;50.950;5.346;2022-08-21T12:16:35;25.90;91.60
33903;DHT22;20194;50.950;5.346;2022-08-21T12:24:38;26.10;99.90
33903;DHT22;20194;50.950;5.346;2022-08-21T12:29:50;26.20;52.90
33903;DHT22;20194;50.950;5.346;2022-08-21T12:34:48;26.40;50.60
33903;DHT22;20194;50.950;5.346;2022-08-21T12:37:20;26.50;4.10
33903;DHT22;20194;50.950;5.346;2022-08-21T12:39:48;26.20;1.00
33903;DHT22;20194;50.950;5.346;2022-08-21T12:42:24;26.20;1.00
33903;DHT22;20194;50.950;5.346;2022-08-21T12:45:06;26.00;96.30
33903;DHT22;20194;50.950;5.346;2022-08-21T12:47:45;26.30;99.90
33903;DHT22;20194;50.950;5.346;2022-08-21T12:50:32;26.60;99.90
33903;DHT22;20194;50.950;5.346;2022-08-21T12:56:02;26.90;13.60
33903;DHT22;20194;50.950;5.346;2022-08-21T12:58:30;26.30;31.70
33903;DHT22;20194;50.950;5.346;2022-08-21T13:01:11;26.20;16.00
33903;DHT22;20194;50.950;5.346;2022-08-21T13:03:38;26.20;1.00
33903;DHT22;20194;50.950;5.346;2022-08-21T13:06:06;26.30;1.00
33903;DHT22;20194;50.950;5.346;2022-08-21T13:08:35;26.40;1.00
33903;DHT22;20194;50.950;5.346;2022-08-21T13:11:04;26.60;1.00
33903;DHT22;20194;50.950;5.346;2022-08-21T13:13:31;26.90;1.00
33903;DHT22;20194;50.950;5.346;2022-08-21T13:16:00;26.90;1.00
33903;DHT22;20194;50.950;5.346;2022-08-21T13:18:34;26.90;1.00
33903;DHT22;20194;50.950;5.346;2022-08-21T13:21:13;26.50;1.00
33903;DHT22;20194;50.950;5.346;2022-08-21T13:23:41;26.00;1.00
33903;DHT22;20194;50.950;5.346;2022-08-21T13:26:33;26.10;1.00
33903;DHT22;20194;50.950;5.346;2022-08-21T13:29:07;26.20;1.00
33903;DHT22;20194;50.950;5.346;2022-08-21T13:31:33;26.30;1.00
33903;DHT22;20194;50.950;5.346;2022-08-21T13:33:59;26.50;1.00
33903;DHT22;20194;50.950;5.346;2022-08-21T13:36:29;26.40;1.00
33903;DHT22;20194;50.950;5.346;2022-08-21T13:38:56;26.40;1.00
33903;DHT22;20194;50.950;5.346;2022-08-21T13:41:29;26.60;1.00
33903;DHT22;20194;50.950;5.346;2022-08-21T13:43:59;26.40;1.00
33903;DHT22;20194;50.950;5.346;2022-08-21T13:46:29;26.10;1.00
33903;DHT22;20194;50.950;5.346;2022-08-21T13:48:56;26.30;1.00
33903;DHT22;20194;50.950;5.346;2022-08-21T13:51:23;26.10;1.00
33903;DHT22;20194;50.950;5.346;2022-08-21T13:53:51;25.70;1.00
33903;DHT22;20194;50.950;5.346;2022-08-21T13:56:29;25.70;1.00
33903;DHT22;20194;50.950;5.346;2022-08-21T13:58:56;25.30;1.00
33903;DHT22;20194;50.950;5.346;2022-08-21T14:01:37;25.50;1.00
33903;DHT22;20194;50.950;5.346;2022-08-21T14:04:22;25.80;1.00
33903;DHT22;20194;50.950;5.346;2022-08-21T14:06:48;25.60;1.00
33903;DHT22;20194;50.950;5.346;2022-08-21T14:11:56;25.30;1.00
33903;DHT22;20194;50.950;5.346;2022-08-21T14:14:33;25.20;1.00
33903;DHT22;20194;50.950;5.346;2022-08-21T14:17:13;25.30;1.00
33903;DHT22;20194;50.950;5.346;2022-08-21T14:19:42;25.50;1.00
33903;DHT22;20194;50.950;5.346;2022-08-21T14:25:10;25.70;1.00
33903;DHT22;20194;50.950;5.346;2022-08-21T14:27:43;25.90;1.00
33903;DHT22;20194;50.950;5.346;2022-08-21T14:30:16;26.20;1.00
33903;DHT22;20194;50.950;5.346;2022-08-21T14:32:42;26.30;1.00
33903;DHT22;20194;50.950;5.346;2022-08-21T14:35:09;26.30;1.00
33903;DHT22;20194;50.950;5.346;2022-08-21T14:37:35;26.30;1.00
33903;DHT22;20194;50.950;5.346;2022-08-21T14:40:03;26.40;1.00
33903;DHT22;20194;50.950;5.346;2022-08-21T14:42:29;26.10;1.00
33903;DHT22;20194;50.950;5.346;2022-08-21T14:45:02;26.20;1.00
33903;DHT22;20194;50.950;5.346;2022-08-21T14:47:29;25.90;1.00
33903;DHT22;20194;50.950;5.346;2022-08-21T14:49:55;25.70;1.00
33903;DHT22;20194;50.950;5.346;2022-08-21T14:52:21;25.90;1.00
33903;DHT22;20194;50.950;5.346;2022-08-21T14:54:48;25.80;1.00
33903;DHT22;20194;50.950;5.346;2022-08-21T14:57:13;25.70;1.00
33903;DHT22;20194;50.950;5.346;2022-08-21T14:59:39;25.80;58.40
33903;DHT22;20194;50.950;5.346;2022-08-21T15:02:07;26.00;1.00
33903;DHT22;20194;50.950;5.346;2022-08-21T15:04:33;26.00;1.00
33903;DHT22;20194;50.950;5.346;2022-08-21T15:06:59;26.20;14.30
33903;DHT22;20194;50.950;5.346;2022-08-21T15:09:25;26.30;10.20
33903;DHT22;20194;50.950;5.346;2022-08-21T15:11:53;26.40;1.00
33903;DHT22;20194;50.950;5.346;2022-08-21T15:14:23;26.30;1.00
33903;DHT22;20194;50.950;5.346;2022-08-21T15:16:50;26.40;40.20
33903;DHT22;20194;50.950;5.346;2022-08-21T15:19:16;26.50;32.10
33903;DHT22;20194;50.950;5.346;2022-08-21T15:21:42;26.30;17.90
33903;DHT22;20194;50.950;5.346;2022-08-21T15:24:08;26.20;73.40
33903;DHT22;20194;50.950;5.346;2022-08-21T15:26:35;26.20;3.00
33903;DHT22;20194;50.950;5.346;2022-08-21T15:29:01;26.20;1.00
33903;DHT22;20194;50.950;5.346;2022-08-21T15:31:28;26.20;34.40
33903;DHT22;20194;50.950;5.346;2022-08-21T15:33:54;26.30;68.10
33903;DHT22;20194;50.950;5.346;2022-08-21T15:36:20;26.50;65.60
33903;DHT22;20194;50.950;5.346;2022-08-21T15:38:46;26.60;15.80
33903;DHT22;20194;50.950;5.346;2022-08-21T15:41:12;26.50;5.70
33903;DHT22;20194;50.950;5.346;2022-08-21T15:43:50;26.50;32.70
33903;DHT22;20194;50.950;5.346;2022-08-21T15:46:18;26.30;68.80
33903;DHT22;20194;50.950;5.346;2022-08-21T15:48:44;26.20;99.90
33903;DHT22;20194;50.950;5.346;2022-08-21T15:51:12;26.20;95.20
33903;DHT22;20194;50.950;5.346;2022-08-21T15:53:38;26.10;79.60
33903;DHT22;20194;50.950;5.346;2022-08-21T15:56:28;25.80;41.60
33903;DHT22;20194;50.950;5.346;2022-08-21T15:59:00;25.90;71.90
33903;DHT22;20194;50.950;5.346;2022-08-21T16:01:26;25.70;52.20
33903;DHT22;20194;50.950;5.346;2022-08-21T16:03:54;25.60;18.00
33903;DHT22;20194;50.950;5.346;2022-08-21T16:06:20;25.70;31.30
33903;DHT22;20194;50.950;5.346;2022-08-21T16:08:46;25.70;22.60
33903;DHT22;20194;50.950;5.346;2022-08-21T16:11:13;25.90;51.20
33903;DHT22;20194;50.950;5.346;2022-08-21T16:13:42;26.10;43.90
33903;DHT22;20194;50.950;5.346;2022-08-21T16:16:10;26.10;35.30
33903;DHT22;20194;50.950;5.346;2022-08-21T16:18:36;26.10;73.50
33903;DHT22;20194;50.950;5.346;2022-08-21T16:21:02;26.00;79.90
33903;DHT22;20194;50.950;5.346;2022-08-21T16:23:28;25.70;96.20
33903;DHT22;20194;50.950;5.346;2022-08-21T16:25:54;25.70;99.90
33903;DHT22;20194;50.950;5.346;2022-08-21T16:28:22;25.80;34.90
33903;DHT22;20194;50.950;5.346;2022-08-21T16:30:50;25.90;23.50
33903;DHT22;20194;50.950;5.346;2022-08-21T16:35:57;25.90;1.00
33903;DHT22;20194;50.950;5.346;2022-08-21T16:38:26;25.90;11.60
33903;DHT22;20194;50.950;5.346;2022-08-21T16:40:52;26.10;42.60
33903;DHT22;20194;50.950;5.346;2022-08-21T16:43:22;25.90;19.60
33903;DHT22;20194;50.950;5.346;2022-08-21T16:45:49;25.70;47.80
33903;DHT22;20194;50.950;5.346;2022-08-21T16:48:15;25.60;99.90
33903;DHT22;20194;50.950;5.346;2022-08-21T16:50:41;25.30;35.70
33903;DHT22;20194;50.950;5.346;2022-08-21T16:53:06;25.40;71.10
33903;DHT22;20194;50.950;5.346;2022-08-21T16:55:37;25.60;96.20
33903;DHT22;20194;50.950;5.346;2022-08-21T16:58:13;25.60;87.30
33903;DHT22;20194;50.950;5.346;2022-08-21T17:00:40;25.30;99.90
33903;DHT22;20194;50.950;5.346;2022-08-21T17:03:06;25.40;90.80
33903;DHT22;20194;50.950;5.346;2022-08-21T17:05:34;25.40;80.00
33903;DHT22;20194;50.950;5.346;2022-08-21T17:08:00;25.20;79.80
33903;DHT22;20194;50.950;5.346;2022-08-21T17:10:26;24.90;30.70
33903;DHT22;20194;50.950;5.346;2022-08-21T17:12:54;24.90;18.90
33903;DHT22;20194;50.950;5.346;2022-08-21T17:15:30;25.00;1.00
33903;DHT22;20194;50.950;5.346;2022-08-21T17:17:56;25.20;29.80
33903;DHT22;20194;50.950;5.346;2022-08-21T17:20:23;25.50;33.00
33903;DHT22;20194;50.950;5.346;2022-08-21T17:22:51;25.70;61.50
33903;DHT22;20194;50.950;5.346;2022-08-21T17:25:17;25.70;45.10
33903;DHT22;20194;50.950;5.346;2022-08-21T17:27:45;25.70;53.60
33903;DHT22;20194;50.950;5.346;2022-08-21T17:30:13;25.60;24.90